sensor_id;sensor_type;location;lat;lon;timestamp;temperature;humidity
39453;DHT22;25154;-33.684;151.102;2022-11-23T00:04:06;22.40;96.00
39453;DHT22;25154;-33.684;151.102;2022-11-23T00:09:10;22.70;95.60
39453;DHT22;25154;-33.684;151.102;2022-11-23T00:14:13;23.30;94.80
39453;DHT22;25154;-33.684;151.102;2022-11-23T00:19:15;23.50;93.90
39453;DHT22;25154;-33.684;151.102;2022-11-23T00:24:17;23.50;92.50
39453;DHT22;25154;-33.684;151.102;2022-11-23T00:29:20;23.50;92.60
39453;DHT22;25154;-33.684;151.102;2022-11-23T00:34:22;23.70;92.30
39453;DHT22;25154;-33.684;151.102;2022-11-23T00:39:24;24.10;91.70
39453;DHT22;25154;-33.684;151.102;2022-11-23T00:44:26;24.60;91.10
39453;DHT22;25154;-33.684;151.102;2022-11-23T00:49:29;24.70;90.40
39453;DHT22;25154;-33.684;151.102;2022-11-23T00:54:32;24.80;90.10
39453;DHT22;25154;-33.684;151.102;2022-11-23T00:59:37;25.00;89.90
39453;DHT22;25154;-33.684;151.102;2022-11-23T01:04:39;23.50;89.20
39453;DHT22;25154;-33.684;151.102;2022-11-23T01:09:42;25.30;88.20
39453;DHT22;25154;-33.684;151.102;2022-11-23T01:14:44;25.50;89.00
39453;DHT22;25154;-33.684;151.102;2022-11-23T01:19:46;26.00;88.30
39453;DHT22;25154;-33.684;151.102;2022-11-23T01:24:49;25.90;87.60
39453;DHT22;25154;-33.684;151.102;2022-11-23T01:29:51;25.90;87.80
39453;DHT22;25154;-33.684;151.102;2022-11-23T01:34:53;26.50;87.10
39453;DHT22;25154;-33.684;151.102;2022-11-23T01:39:56;27.20;85.40
39453;DHT22;25154;-33.684;151.102;2022-11-23T01:45:31;27.10;87.40
39453;DHT22;25154;-33.684;151.102;2022-11-23T01:50:34;27.50;85.50
39453;DHT22;25154;-33.684;151.102;2022-11-23T01:55:37;27.20;84.20
39453;DHT22;25154;-33.684;151.102;2022-11-23T02:00:40;28.00;85.70
39453;DHT22;25154;-33.684;151.102;2022-11-23T02:05:55;29.10;82.40
39453;DHT22;25154;-33.684;151.102;2022-11-23T02:10:59;26.90;84.30
39453;DHT22;25154;-33.684;151.102;2022-11-23T02:16:02;27.00;84.20
39453;DHT22;25154;-33.684;151.102;2022-11-23T02:21:05;27.80;84.50
39453;DHT22;25154;-33.684;151.102;2022-11-23T02:26:31;28.70;82.40
39453;DHT22;25154;-33.684;151.102;2022-11-23T02:31:34;28.50;83.50
39453;DHT22;25154;-33.684;151.102;2022-11-23T02:36:45;27.90;83.30
39453;DHT22;25154;-33.684;151.102;2022-11-23T02:41:52;25.90;84.50
39453;DHT22;25154;-33.684;151.102;2022-11-23T02:46:55;25.10;86.70
39453;DHT22;25154;-33.684;151.102;2022-11-23T02:51:58;27.20;86.50
39453;DHT22;25154;-33.684;151.102;2022-11-23T02:57:00;27.70;83.10
39453;DHT22;25154;-33.684;151.102;2022-11-23T03:02:04;27.10;83.90
39453;DHT22;25154;-33.684;151.102;2022-11-23T03:07:06;29.00;83.20
39453;DHT22;25154;-33.684;151.102;2022-11-23T03:12:08;30.50;80.40
39453;DHT22;25154;-33.684;151.102;2022-11-23T03:17:11;31.40;77.50
39453;DHT22;25154;-33.684;151.102;2022-11-23T03:22:13;31.00;77.30
39453;DHT22;25154;-33.684;151.102;2022-11-23T03:27:16;30.60;76.60
39453;DHT22;25154;-33.684;151.102;2022-11-23T03:32:18;31.40;77.10
39453;DHT22;25154;-33.684;151.102;2022-11-23T03:37:21;31.70;74.70
39453;DHT22;25154;-33.684;151.102;2022-11-23T03:42:23;30.20;76.90
39453;DHT22;25154;-33.684;151.102;2022-11-23T03:47:25;30.70;75.90
39453;DHT22;25154;-33.684;151.102;2022-11-23T03:52:28;30.00;75.50
39453;DHT22;25154;-33.684;151.102;2022-11-23T03:57:30;30.40;76.90
39453;DHT22;25154;-33.684;151.102;2022-11-23T04:02:32;31.60;74.80
39453;DHT22;25154;-33.684;151.102;2022-11-23T04:07:35;31.90;75.10
39453;DHT22;25154;-33.684;151.102;2022-11-23T04:12:37;32.90;73.70
39453;DHT22;25154;-33.684;151.102;2022-11-23T04:17:39;33.80;73.10
39453;DHT22;25154;-33.684;151.102;2022-11-23T04:22:42;32.00;73.60
39453;DHT22;25154;-33.684;151.102;2022-11-23T04:27:44;33.10;73.20
39453;DHT22;25154;-33.684;151.102;2022-11-23T04:32:47;31.50;73.60
39453;DHT22;25154;-33.684;151.102;2022-11-23T04:37:49;30.70;74.30
39453;DHT22;25154;-33.684;151.102;2022-11-23T04:42:52;29.50;76.30
39453;DHT22;25154;-33.684;151.102;2022-11-23T04:47:54;29.20;78.20
39453;DHT22;25154;-33.684;151.102;2022-11-23T04:52:57;28.40;76.80
39453;DHT22;25154;-33.684;151.102;2022-11-23T04:57:59;27.50;77.00
39453;DHT22;25154;-33.684;151.102;2022-11-23T05:03:02;26.90;78.90
39453;DHT22;25154;-33.684;151.102;2022-11-23T05:08:04;26.50;79.50
39453;DHT22;25154;-33.684;151.102;2022-11-23T05:13:07;28.50;78.70
39453;DHT22;25154;-33.684;151.102;2022-11-23T05:18:10;32.40;74.80
39453;DHT22;25154;-33.684;151.102;2022-11-23T05:23:13;32.50;71.90
39453;DHT22;25154;-33.684;151.102;2022-11-23T05:28:17;31.50;73.10
39453;DHT22;25154;-33.684;151.102;2022-11-23T05:33:20;33.30;71.80
39453;DHT22;25154;-33.684;151.102;2022-11-23T05:38:23;34.00;71.00
39453;DHT22;25154;-33.684;151.102;2022-11-23T05:43:25;33.10;70.90
39453;DHT22;25154;-33.684;151.102;2022-11-23T05:48:28;32.40;73.30
39453;DHT22;25154;-33.684;151.102;2022-11-23T05:53:30;31.20;72.40
39453;DHT22;25154;-33.684;151.102;2022-11-23T05:58:32;30.40;73.80
39453;DHT22;25154;-33.684;151.102;2022-11-23T06:03:35;31.30;73.00
39453;DHT22;25154;-33.684;151.102;2022-11-23T06:08:37;32.70;72.50
39453;DHT22;25154;-33.684;151.102;2022-11-23T06:13:39;33.90;69.00
39453;DHT22;25154;-33.684;151.102;2022-11-23T06:18:42;33.00;69.50
39453;DHT22;25154;-33.684;151.102;2022-11-23T06:23:46;33.40;68.10
39453;DHT22;25154;-33.684;151.102;2022-11-23T06:28:48;32.90;67.60
39453;DHT22;25154;-33.684;151.102;2022-11-23T06:33:56;30.90;70.40
39453;DHT22;25154;-33.684;151.102;2022-11-23T06:38:58;30.00;70.40
39453;DHT22;25154;-33.684;151.102;2022-11-23T06:44:00;30.60;69.20
39453;DHT22;25154;-33.684;151.102;2022-11-23T06:49:03;30.70;70.10
39453;DHT22;25154;-33.684;151.102;2022-11-23T06:54:05;29.00;70.90
39453;DHT22;25154;-33.684;151.102;2022-11-23T06:59:09;30.20;70.00
39453;DHT22;25154;-33.684;151.102;2022-11-23T07:04:12;31.70;69.40
39453;DHT22;25154;-33.684;151.102;2022-11-23T07:09:15;32.20;68.30
39453;DHT22;25154;-33.684;151.102;2022-11-23T07:14:18;31.40;68.90
39453;DHT22;25154;-33.684;151.102;2022-11-23T07:19:20;31.20;68.50
39453;DHT22;25154;-33.684;151.102;2022-11-23T07:24:23;31.60;68.50
39453;DHT22;25154;-33.684;151.102;2022-11-23T07:29:26;32.00;74.20
39453;DHT22;25154;-33.684;151.102;2022-11-23T07:34:30;31.70;75.50
39453;DHT22;25154;-33.684;151.102;2022-11-23T07:39:32;32.20;75.30
39453;DHT22;25154;-33.684;151.102;2022-11-23T07:44:34;32.80;75.70
39453;DHT22;25154;-33.684;151.102;2022-11-23T07:49:37;29.90;79.00
39453;DHT22;25154;-33.684;151.102;2022-11-23T07:54:39;27.90;83.40
39453;DHT22;25154;-33.684;151.102;2022-11-23T07:59:41;26.30;86.60
39453;DHT22;25154;-33.684;151.102;2022-11-23T08:04:44;25.10;89.70
39453;DHT22;25154;-33.684;151.102;2022-11-23T08:09:46;24.30;90.60
39453;DHT22;25154;-33.684;151.102;2022-11-23T08:14:48;23.60;91.90
39453;DHT22;25154;-33.684;151.102;2022-11-23T08:19:51;23.30;93.00
39453;DHT22;25154;-33.684;151.102;2022-11-23T08:24:54;23.00;94.10
39453;DHT22;25154;-33.684;151.102;2022-11-23T08:29:56;22.80;95.20
39453;DHT22;25154;-33.684;151.102;2022-11-23T08:34:59;22.50;95.90
39453;DHT22;25154;-33.684;151.102;2022-11-23T08:40:01;22.20;96.00
39453;DHT22;25154;-33.684;151.102;2022-11-23T08:45:04;22.00;96.70
39453;DHT22;25154;-33.684;151.102;2022-11-23T08:50:07;23.80;98.00
39453;DHT22;25154;-33.684;151.102;2022-11-23T08:55:09;21.60;98.10
39453;DHT22;25154;-33.684;151.102;2022-11-23T09:00:12;21.40;98.50
39453;DHT22;25154;-33.684;151.102;2022-11-23T09:05:15;21.20;99.80
39453;DHT22;25154;-33.684;151.102;2022-11-23T09:10:17;20.90;99.90
39453;DHT22;25154;-33.684;151.102;2022-11-23T09:15:20;20.70;99.90
39453;DHT22;25154;-33.684;151.102;2022-11-23T09:20:22;20.50;99.90
39453;DHT22;25154;-33.684;151.102;2022-11-23T09:25:26;20.30;99.90
39453;DHT22;25154;-33.684;151.102;2022-11-23T09:30:29;20.10;99.90
39453;DHT22;25154;-33.684;151.102;2022-11-23T09:35:33;19.90;99.90
39453;DHT22;25154;-33.684;151.102;2022-11-23T09:40:39;19.60;99.90
39453;DHT22;25154;-33.684;151.102;2022-11-23T09:51:04;19.20;99.90
39453;DHT22;25154;-33.684;151.102;2022-11-23T09:56:17;18.90;99.90
39453;DHT22;25154;-33.684;151.102;2022-11-23T10:01:22;18.70;99.90
39453;DHT22;25154;-33.684;151.102;2022-11-23T10:06:30;18.50;99.90
39453;DHT22;25154;-33.684;151.102;2022-11-23T10:22:59;18.00;99.90
39453;DHT22;25154;-33.684;151.102;2022-11-23T10:28:10;17.80;99.90
39453;DHT22;25154;-33.684;151.102;2022-11-23T10:33:28;17.70;99.90
39453;DHT22;25154;-33.684;151.102;2022-11-23T10:38:32;17.50;99.90
39453;DHT22;25154;-33.684;151.102;2022-11-23T10:59:35;21.30;99.90
39453;DHT22;25154;-33.684;151.102;2022-11-23T11:04:38;17.00;99.90
39453;DHT22;25154;-33.684;151.102;2022-11-23T11:09:41;16.80;99.90
39453;DHT22;25154;-33.684;151.102;2022-11-23T11:15:03;16.80;99.90
39453;DHT22;25154;-33.684;151.102;2022-11-23T11:20:32;16.70;99.90
39453;DHT22;25154;-33.684;151.102;2022-11-23T11:25:39;16.60;99.90
39453;DHT22;25154;-33.684;151.102;2022-11-23T11:36:13;16.30;99.90
39453;DHT22;25154;-33.684;151.102;2022-11-23T11:41:17;16.20;99.90
39453;DHT22;25154;-33.684;151.102;2022-11-23T11:46:38;16.20;99.90
39453;DHT22;25154;-33.684;151.102;2022-11-23T11:51:47;16.20;99.90
39453;DHT22;25154;-33.684;151.102;2022-11-23T11:57:09;16.10;99.90
39453;DHT22;25154;-33.684;151.102;2022-11-23T12:12:55;16.10;99.90
39453;DHT22;25154;-33.684;151.102;2022-11-23T12:23:45;16.10;99.90
39453;DHT22;25154;-33.684;151.102;2022-11-23T12:29:15;16.20;99.90
39453;DHT22;25154;-33.684;151.102;2022-11-23T12:50:54;16.50;99.90
39453;DHT22;25154;-33.684;151.102;2022-11-23T12:56:16;16.60;99.90
39453;DHT22;25154;-33.684;151.102;2022-11-23T13:01:37;16.60;99.90
39453;DHT22;25154;-33.684;151.102;2022-11-23T13:17:36;16.90;99.90
39453;DHT22;25154;-33.684;151.102;2022-11-23T13:22:42;16.80;99.90
39453;DHT22;25154;-33.684;151.102;2022-11-23T13:33:00;16.50;99.90
39453;DHT22;25154;-33.684;151.102;2022-11-23T13:43:24;16.50;99.90
39453;DHT22;25154;-33.684;151.102;2022-11-23T13:48:28;16.50;99.90
39453;DHT22;25154;-33.684;151.102;2022-11-23T13:53:39;16.40;99.90
39453;DHT22;25154;-33.684;151.102;2022-11-23T13:58:54;16.40;99.90
39453;DHT22;25154;-33.684;151.102;2022-11-23T14:03:56;16.30;99.90
39453;DHT22;25154;-33.684;151.102;2022-11-23T14:09:38;16.20;99.90
39453;DHT22;25154;-33.684;151.102;2022-11-23T14:15:16;16.10;99.90
39453;DHT22;25154;-33.684;151.102;2022-11-23T14:42:10;15.70;99.90
39453;DHT22;25154;-33.684;151.102;2022-11-23T14:47:28;15.60;99.90
39453;DHT22;25154;-33.684;151.102;2022-11-23T14:52:34;15.50;99.90
39453;DHT22;25154;-33.684;151.102;2022-11-23T14:57:42;13.90;99.90
39453;DHT22;25154;-33.684;151.102;2022-11-23T15:02:46;15.40;99.90
39453;DHT22;25154;-33.684;151.102;2022-11-23T15:08:08;15.40;99.90
39453;DHT22;25154;-33.684;151.102;2022-11-23T15:13:26;15.30;99.90
39453;DHT22;25154;-33.684;151.102;2022-11-23T15:18:30;15.30;99.90
39453;DHT22;25154;-33.684;151.102;2022-11-23T15:28:43;15.10;99.90
39453;DHT22;25154;-33.684;151.102;2022-11-23T15:33:47;15.00;99.90
39453;DHT22;25154;-33.684;151.102;2022-11-23T15:38:52;15.00;99.90
39453;DHT22;25154;-33.684;151.102;2022-11-23T15:43:59;15.00;99.90
39453;DHT22;25154;-33.684;151.102;2022-11-23T15:49:03;14.90;99.90
39453;DHT22;25154;-33.684;151.102;2022-11-23T15:54:25;14.80;99.90
39453;DHT22;25154;-33.684;151.102;2022-11-23T15:59:34;14.70;99.90
39453;DHT22;25154;-33.684;151.102;2022-11-23T16:04:40;14.60;99.90
39453;DHT22;25154;-33.684;151.102;2022-11-23T16:20:50;14.30;99.90
39453;DHT22;25154;-33.684;151.102;2022-11-23T16:26:01;14.40;99.90
39453;DHT22;25154;-33.684;151.102;2022-11-23T16:31:05;14.40;99.90
39453;DHT22;25154;-33.684;151.102;2022-11-23T16:36:07;14.30;99.90
39453;DHT22;25154;-33.684;151.102;2022-11-23T16:41:10;14.20;99.90
39453;DHT22;25154;-33.684;151.102;2022-11-23T16:46:12;14.10;99.90
39453;DHT22;25154;-33.684;151.102;2022-11-23T16:51:15;14.10;99.90
39453;DHT22;25154;-33.684;151.102;2022-11-23T16:56:22;14.10;99.90
39453;DHT22;25154;-33.684;151.102;2022-11-23T17:01:27;14.10;99.90
39453;DHT22;25154;-33.684;151.102;2022-11-23T17:06:33;14.00;99.90
39453;DHT22;25154;-33.684;151.102;2022-11-23T17:11:38;14.00;99.90
39453;DHT22;25154;-33.684;151.102;2022-11-23T17:16:42;14.00;99.90
39453;DHT22;25154;-33.684;151.102;2022-11-23T17:21:45;13.90;99.90
39453;DHT22;25154;-33.684;151.102;2022-11-23T17:26:51;13.90;99.90
39453;DHT22;25154;-33.684;151.102;2022-11-23T17:31:53;13.70;99.90
39453;DHT22;25154;-33.684;151.102;2022-11-23T17:36:56;13.70;99.90
39453;DHT22;25154;-33.684;151.102;2022-11-23T17:42:01;13.60;99.90
39453;DHT22;25154;-33.684;151.102;2022-11-23T17:47:04;13.50;99.90
39453;DHT22;25154;-33.684;151.102;2022-11-23T17:52:10;13.60;99.90
39453;DHT22;25154;-33.684;151.102;2022-11-23T17:57:15;13.60;99.90
39453;DHT22;25154;-33.684;151.102;2022-11-23T18:02:18;13.60;99.90
39453;DHT22;25154;-33.684;151.102;2022-11-23T18:07:21;13.50;99.90
39453;DHT22;25154;-33.684;151.102;2022-11-23T18:12:23;13.40;99.90
39453;DHT22;25154;-33.684;151.102;2022-11-23T18:17:26;13.40;99.90
39453;DHT22;25154;-33.684;151.102;2022-11-23T18:22:28;13.30;99.90
39453;DHT22;25154;-33.684;151.102;2022-11-23T18:27:31;13.30;99.90
39453;DHT22;25154;-33.684;151.102;2022-11-23T18:32:33;13.20;99.90
39453;DHT22;25154;-33.684;151.102;2022-11-23T18:37:35;13.10;99.90
39453;DHT22;25154;-33.684;151.102;2022-11-23T18:42:38;13.10;99.90
39453;DHT22;25154;-33.684;151.102;2022-11-23T18:47:40;13.20;99.90
39453;DHT22;25154;-33.684;151.102;2022-11-23T18:52:42;13.20;99.90
39453;DHT22;25154;-33.684;151.102;2022-11-23T18:57:45;13.20;99.90
39453;DHT22;25154;-33.684;151.102;2022-11-23T19:02:55;13.10;99.90
39453;DHT22;25154;-33.684;151.102;2022-11-23T19:08:00;13.00;99.90
39453;DHT22;25154;-33.684;151.102;2022-11-23T19:13:05;13.00;99.90
39453;DHT22;25154;-33.684;151.102;2022-11-23T19:18:08;13.00;99.90
39453;DHT22;25154;-33.684;151.102;2022-11-23T19:23:13;13.00;99.90
39453;DHT22;25154;-33.684;151.102;2022-11-23T19:28:15;13.00;99.90
39453;DHT22;25154;-33.684;151.102;2022-11-23T19:33:18;13.00;99.90
39453;DHT22;25154;-33.684;151.102;2022-11-23T19:38:20;13.10;99.90
39453;DHT22;25154;-33.684;151.102;2022-11-23T19:43:22;13.20;99.90
39453;DHT22;25154;-33.684;151.102;2022-11-23T19:48:25;13.20;99.90
39453;DHT22;25154;-33.684;151.102;2022-11-23T19:53:33;13.40;99.90
39453;DHT22;25154;-33.684;151.102;2022-11-23T19:58:36;13.50;99.90
39453;DHT22;25154;-33.684;151.102;2022-11-23T20:03:44;13.70;99.90
39453;DHT22;25154;-33.684;151.102;2022-11-23T20:08:53;13.70;99.90
39453;DHT22;25154;-33.684;151.102;2022-11-23T20:13:57;13.80;99.90
39453;DHT22;25154;-33.684;151.102;2022-11-23T20:19:01;13.20;99.90
39453;DHT22;25154;-33.684;151.102;2022-11-23T20:24:12;14.00;99.90
39453;DHT22;25154;-33.684;151.102;2022-11-23T20:29:15;14.10;99.90
39453;DHT22;25154;-33.684;151.102;2022-11-23T20:34:17;14.40;99.90
39453;DHT22;25154;-33.684;151.102;2022-11-23T20:39:20;14.80;99.90
39453;DHT22;25154;-33.684;151.102;2022-11-23T20:44:22;15.40;99.90
39453;DHT22;25154;-33.684;151.102;2022-11-23T20:49:26;15.90;99.90
39453;DHT22;25154;-33.684;151.102;2022-11-23T20:54:30;16.20;99.90
39453;DHT22;25154;-33.684;151.102;2022-11-23T20:59:34;16.60;99.90
39453;DHT22;25154;-33.684;151.102;2022-11-23T21:04:36;16.90;99.90
39453;DHT22;25154;-33.684;151.102;2022-11-23T21:09:39;17.20;99.90
39453;DHT22;25154;-33.684;151.102;2022-11-23T21:14:41;17.40;99.90
39453;DHT22;25154;-33.684;151.102;2022-11-23T21:19:43;17.60;99.90
39453;DHT22;25154;-33.684;151.102;2022-11-23T21:24:46;17.90;99.90
39453;DHT22;25154;-33.684;151.102;2022-11-23T21:29:48;18.10;99.90
39453;DHT22;25154;-33.684;151.102;2022-11-23T21:34:51;18.30;99.90
39453;DHT22;25154;-33.684;151.102;2022-11-23T21:39:54;18.50;99.90
39453;DHT22;25154;-33.684;151.102;2022-11-23T21:44:56;18.80;99.90
39453;DHT22;25154;-33.684;151.102;2022-11-23T21:49:59;19.10;99.90
39453;DHT22;25154;-33.684;151.102;2022-11-23T21:55:03;19.30;99.90
39453;DHT22;25154;-33.684;151.102;2022-11-23T22:00:06;19.70;99.90
39453;DHT22;25154;-33.684;151.102;2022-11-23T22:05:09;19.80;99.90
39453;DHT22;25154;-33.684;151.102;2022-11-23T22:10:11;19.90;99.90
39453;DHT22;25154;-33.684;151.102;2022-11-23T22:15:14;20.10;99.90
39453;DHT22;25154;-33.684;151.102;2022-11-23T22:20:20;20.30;99.90
39453;DHT22;25154;-33.684;151.102;2022-11-23T22:25:22;20.40;99.90
39453;DHT22;25154;-33.684;151.102;2022-11-23T22:30:25;20.50;99.90
39453;DHT22;25154;-33.684;151.102;2022-11-23T22:35:28;20.50;99.90
39453;DHT22;25154;-33.684;151.102;2022-11-23T22:40:33;20.60;99.90
39453;DHT22;25154;-33.684;151.102;2022-11-23T22:45:36;21.10;98.50
39453;DHT22;25154;-33.684;151.102;2022-11-23T22:50:38;21.30;98.50
39453;DHT22;25154;-33.684;151.102;2022-11-23T22:55:42;21.60;98.90
39453;DHT22;25154;-33.684;151.102;2022-11-23T23:00:45;21.80;96.80
39453;DHT22;25154;-33.684;151.102;2022-11-23T23:05:57;21.80;96.70
39453;DHT22;25154;-33.684;151.102;2022-11-23T23:11:05;22.20;97.40
39453;DHT22;25154;-33.684;151.102;2022-11-23T23:16:11;22.50;94.90
39453;DHT22;25154;-33.684;151.102;2022-11-23T23:21:16;22.00;95.80
39453;DHT22;25154;-33.684;151.102;2022-11-23T23:26:21;22.20;95.90
39453;DHT22;25154;-33.684;151.102;2022-11-23T23:31:24;22.70;95.00
39453;DHT22;25154;-33.684;151.102;2022-11-23T23:36:28;22.90;95.30
39453;DHT22;25154;-33.684;151.102;2022-11-23T23:41:30;22.80;94.00
39453;DHT22;25154;-33.684;151.102;2022-11-23T23:46:33;22.90;95.70
39453;DHT22;25154;-33.684;151.102;2022-11-23T23:51:36;23.30;94.80
39453;DHT22;25154;-33.684;151.102;2022-11-23T23:56:39;23.70;93.70
